Main page
METAR-TAF:

METAR-TAF

Airports :

South Bend International Airport

South Bend, Indiana, United States

latitude: 41-42-32N, longitude: 086-19-07W, elevation: 800 ft

Current weather observation

The report was made 2 hours and 1 minutes ago, at 13:54 UTC
Wind 9 mph from the Southwest
Temperature 52°F
Humidity 47%
Pressure 30.14 in. Hg
Visibility: 10 miles
Clear sky

METAR: KSBN 221354Z 22008KT 10SM CLR 11/00 A3014 RMK AO2 SLP209 T01110000

Time: 11:55 (15:55 UTC)

Forecast

The report was made 4 hours and 34 minutes ago, at 11:21 UTC
Forecast valid from 22 at 12 UTC to 23 at 12 UTC
Wind 8 mph from the Southwest
Visibility: 6 miles
Clear sky
From 22 at 1500 UTC
Wind 14 mph from the Southwest with gusts up to 23 mph
Visibility: 6 miles
Clear sky
From 23 at 0900 UTC
Wind 20 mph from the South/Southwest
Visibility: 6 miles
Broken clouds at a height of 8000 ft

TAF: KSBN 221121Z 2212/2312 22007KT P6SM SKC FM221500 22012G20KT P6SM SKC FM230900 21017KT P6SM BKN080 WS020/23045KT

Weather observations and forecasts of more than 4000 airports (METAR and TAF reports).

The available stations are represented by yellow and red dots on the map.

Hover mouse over dot to see the name of the station.

Then click to see weather observations and forecasts.

To change the map : click on the green buttons with a black cross to zoom in, on the green button with a dash to zoom out, or on the green arrows for adjacent maps.


METAR-TAF: